createdAt,value
2022-12-25T03:03:48.103Z,35.40
2022-12-25T03:06:34.572Z,40.10
2022-12-25T03:09:19.264Z,33.90
2022-12-25T03:11:49.140Z,34.20
2022-12-25T03:14:42.395Z,39.70
2022-12-25T03:17:09.467Z,41.10
2022-12-25T03:19:55.249Z,32.70
2022-12-25T03:22:45.502Z,35.80
2022-12-25T03:25:32.418Z,39.00
2022-12-25T03:28:00.447Z,37.10
2022-12-25T03:30:51.408Z,47.80
2022-12-25T03:33:44.724Z,45.90
2022-12-25T03:36:18.250Z,43.80
2022-12-25T03:39:12.211Z,42.60
2022-12-25T03:42:03.760Z,50.50
2022-12-25T03:44:59.785Z,44.90
2022-12-25T03:47:47.879Z,59.80
2022-12-25T03:50:36.773Z,47.90
2022-12-25T03:53:26.170Z,51.80
2022-12-25T03:56:12.177Z,48.80
2022-12-25T03:58:56.793Z,46.00
2022-12-25T04:01:41.476Z,65.10
2022-12-25T04:04:26.708Z,50.70
2022-12-25T04:07:11.537Z,50.80
2022-12-25T04:09:56.201Z,53.60
2022-12-25T04:12:40.718Z,48.10
2022-12-25T04:15:26.192Z,44.90
2022-12-25T04:18:13.399Z,46.20
2022-12-25T04:20:57.960Z,43.30
2022-12-25T04:23:44.681Z,47.60
2022-12-25T04:26:43.832Z,48.30
2022-12-25T04:29:28.389Z,54.60
2022-12-25T04:32:13.088Z,47.60
2022-12-25T04:35:12.357Z,45.30
2022-12-25T04:37:39.536Z,44.70
2022-12-25T04:40:08.086Z,43.10
2022-12-25T04:42:35.063Z,46.30
2022-12-25T04:45:01.996Z,44.90
2022-12-25T04:47:29.205Z,42.30
2022-12-25T04:49:56.185Z,45.80
2022-12-25T04:52:23.111Z,52.20
2022-12-25T04:54:50.652Z,45.00
2022-12-25T04:57:17.853Z,50.10
2022-12-25T04:59:44.778Z,45.30
2022-12-25T05:02:12.236Z,45.40
2022-12-25T05:04:39.258Z,46.90
2022-12-25T05:07:06.516Z,45.50
2022-12-25T05:09:33.560Z,41.70
2022-12-25T05:12:00.510Z,46.60
2022-12-25T05:14:27.599Z,45.30
2022-12-25T05:16:54.564Z,44.50
2022-12-25T05:19:21.470Z,46.90
2022-12-25T05:21:48.486Z,52.30
2022-12-25T05:24:15.661Z,48.40
2022-12-25T05:26:42.659Z,47.50
2022-12-25T05:29:09.585Z,46.90
2022-12-25T05:31:36.637Z,47.80
2022-12-25T05:34:03.707Z,51.40
2022-12-25T05:36:30.732Z,48.90
2022-12-25T05:38:57.902Z,53.30
2022-12-25T05:41:27.879Z,47.40
2022-12-25T05:43:59.457Z,49.00
2022-12-25T05:46:26.611Z,51.90
2022-12-25T05:48:53.849Z,51.60
2022-12-25T05:51:20.926Z,54.10
2022-12-25T05:53:47.899Z,51.50
2022-12-25T05:56:15.343Z,48.90
2022-12-25T05:58:42.722Z,48.60
2022-12-25T06:01:19.456Z,49.30
2022-12-25T06:06:13.974Z,46.30
2022-12-25T06:08:40.928Z,44.50
2022-12-25T06:11:09.226Z,43.20
2022-12-25T06:13:37.482Z,40.30
2022-12-25T06:16:06.892Z,41.20
2022-12-25T06:18:35.657Z,38.60
2022-12-25T06:21:02.578Z,39.90
2022-12-25T06:23:29.781Z,36.10
2022-12-25T06:25:56.983Z,41.20
2022-12-25T06:28:23.916Z,44.40
2022-12-25T06:30:50.885Z,41.20
2022-12-25T06:33:17.907Z,41.20
2022-12-25T06:35:45.811Z,48.40
2022-12-25T06:38:12.766Z,45.40
2022-12-25T06:40:39.737Z,52.50
2022-12-25T06:43:06.864Z,59.40
2022-12-25T06:45:35.903Z,55.40
2022-12-25T06:48:02.891Z,61.10
2022-12-25T06:50:29.879Z,58.10
2022-12-25T06:52:56.943Z,57.80
2022-12-25T06:55:23.977Z,63.60
2022-12-25T06:57:50.896Z,60.20
2022-12-25T07:00:18.632Z,59.40
2022-12-25T07:02:49.652Z,61.90
2022-12-25T07:05:17.639Z,62.60
2022-12-25T07:07:44.604Z,63.10
2022-12-25T07:10:13.345Z,63.70
2022-12-25T07:12:40.233Z,63.00
2022-12-25T07:15:09.143Z,65.20
2022-12-25T07:17:37.034Z,60.10
2022-12-25T07:20:04.413Z,57.70
2022-12-25T07:22:32.530Z,58.60
2022-12-25T07:24:59.684Z,60.90
2022-12-25T07:27:27.056Z,62.10
2022-12-25T07:29:54.049Z,57.90
2022-12-25T07:32:21.067Z,62.20
2022-12-25T07:34:48.710Z,57.30
2022-12-25T07:37:15.880Z,57.80
2022-12-25T07:39:42.904Z,60.30
2022-12-25T07:42:09.835Z,56.20
2022-12-25T07:44:38.124Z,58.70
2022-12-25T07:47:05.695Z,58.70
2022-12-25T07:49:32.688Z,55.70
2022-12-25T07:51:59.740Z,57.60
2022-12-25T07:54:26.789Z,57.90
2022-12-25T07:56:54.910Z,52.10
2022-12-25T07:59:22.401Z,53.70
2022-12-25T08:01:52.331Z,52.70
2022-12-25T08:04:19.628Z,51.90
2022-12-25T08:06:46.645Z,50.20
2022-12-25T08:09:14.555Z,52.80
2022-12-25T08:11:45.789Z,52.70
2022-12-25T08:14:12.853Z,47.10
2022-12-25T08:16:41.755Z,43.50
2022-12-25T08:19:08.957Z,47.80
2022-12-25T08:21:35.961Z,45.00
2022-12-25T08:24:03.340Z,43.60
2022-12-25T08:26:30.546Z,45.70
2022-12-25T08:28:57.787Z,42.10
2022-12-25T08:31:26.961Z,41.30
2022-12-25T08:33:57.188Z,40.50
2022-12-25T08:36:24.959Z,41.20
2022-12-25T08:38:55.576Z,42.20
2022-12-25T08:41:25.638Z,40.80
2022-12-25T08:43:52.793Z,43.30
2022-12-25T08:46:20.061Z,42.80
2022-12-25T08:48:48.387Z,41.20
2022-12-25T08:51:17.258Z,40.60
2022-12-25T08:53:44.299Z,42.60
2022-12-25T08:56:11.831Z,47.60
2022-12-25T08:58:39.095Z,40.30
2022-12-25T09:01:06.394Z,43.40
2022-12-25T09:03:34.897Z,45.30
2022-12-25T09:06:05.598Z,43.70
2022-12-25T09:08:32.788Z,47.50
2022-12-25T09:11:02.344Z,45.90
2022-12-25T09:13:29.460Z,44.50
2022-12-25T09:15:56.540Z,44.30
2022-12-25T09:18:24.109Z,41.50
2022-12-25T09:21:00.932Z,37.40
2022-12-25T09:23:29.040Z,41.20
2022-12-25T09:25:56.261Z,42.00
2022-12-25T09:28:24.123Z,36.50
2022-12-25T09:30:53.227Z,39.70
2022-12-25T09:33:20.577Z,35.60
2022-12-25T09:35:53.663Z,38.40
2022-12-25T09:38:21.917Z,37.90
2022-12-25T09:40:49.237Z,37.90
2022-12-25T09:43:21.888Z,35.80
2022-12-25T09:45:49.040Z,38.90
2022-12-25T09:48:17.987Z,34.10
2022-12-25T09:50:51.645Z,36.30
2022-12-25T09:53:23.479Z,33.10
2022-12-25T09:55:55.419Z,38.00
2022-12-25T09:58:22.491Z,34.70
2022-12-25T10:00:54.972Z,37.60
2022-12-25T10:03:35.041Z,37.50
2022-12-25T10:06:17.239Z,36.00
2022-12-25T10:09:13.206Z,43.40
2022-12-25T10:11:54.132Z,39.20
2022-12-25T10:14:32.104Z,39.00
2022-12-25T10:17:13.069Z,32.40
2022-12-25T10:19:48.205Z,33.80
2022-12-25T10:22:20.152Z,34.20
2022-12-25T10:24:52.971Z,36.00
2022-12-25T10:27:25.856Z,34.70
2022-12-25T10:29:55.929Z,34.30
2022-12-25T10:32:23.767Z,34.80
2022-12-25T10:34:51.460Z,28.50
2022-12-25T10:37:19.149Z,33.10
2022-12-25T10:39:47.280Z,32.20
2022-12-25T10:42:40.578Z,31.90
2022-12-25T10:45:10.707Z,31.50
2022-12-25T10:47:43.672Z,26.40
2022-12-25T10:50:26.155Z,30.30
2022-12-25T10:53:04.500Z,31.70
2022-12-25T10:55:31.795Z,29.00
2022-12-25T10:57:59.302Z,32.00
2022-12-25T11:00:29.555Z,30.90
2022-12-25T11:02:57.364Z,33.80
2022-12-25T11:05:30.684Z,34.40
2022-12-25T11:08:00.314Z,32.70
2022-12-25T11:10:31.352Z,37.10
2022-12-25T11:12:59.628Z,30.80
2022-12-25T11:15:41.675Z,31.40
2022-12-25T11:18:21.699Z,30.30
2022-12-25T11:20:53.823Z,30.80
2022-12-25T11:23:23.143Z,33.60
2022-12-25T11:25:59.680Z,32.80
2022-12-25T11:28:27.299Z,33.20
2022-12-25T11:31:00.576Z,32.90
2022-12-25T11:33:32.586Z,29.70
2022-12-25T11:36:04.350Z,32.50
2022-12-25T11:38:31.422Z,28.00
2022-12-25T11:41:03.386Z,32.10
2022-12-25T11:43:37.181Z,34.40
2022-12-25T11:46:13.309Z,29.50
2022-12-25T11:48:46.057Z,29.90
2022-12-25T11:51:15.637Z,29.20
2022-12-25T11:53:50.058Z,30.10
2022-12-25T11:56:19.984Z,29.60
2022-12-25T11:58:50.542Z,28.90
2022-12-25T12:01:30.330Z,32.10
2022-12-25T12:03:59.187Z,31.40
2022-12-25T12:06:33.827Z,30.50
2022-12-25T12:09:13.102Z,35.50
2022-12-25T12:11:47.521Z,33.90
2022-12-25T12:14:31.572Z,32.20
2022-12-25T12:16:58.646Z,36.20
2022-12-25T12:19:30.701Z,35.20
2022-12-25T12:22:01.515Z,44.00
2022-12-25T12:24:34.651Z,45.30
2022-12-25T12:27:07.586Z,37.20
2022-12-25T12:29:40.967Z,40.50
2022-12-25T12:32:26.319Z,33.80
2022-12-25T12:34:53.481Z,38.30
2022-12-25T12:37:26.581Z,39.10
2022-12-25T12:39:56.354Z,42.00
2022-12-25T12:42:27.269Z,40.00
2022-12-25T12:44:55.652Z,39.50
2022-12-25T12:47:39.975Z,38.70
2022-12-25T12:50:09.374Z,36.50
2022-12-25T12:52:41.209Z,36.80
2022-12-25T12:55:13.327Z,42.90
2022-12-25T12:57:41.206Z,40.90
2022-12-25T13:00:16.225Z,39.60
2022-12-25T13:03:06.091Z,40.10
2022-12-25T13:05:41.406Z,36.90
2022-12-25T13:08:21.388Z,40.20
2022-12-25T13:10:51.800Z,39.90
2022-12-25T13:13:24.400Z,43.70
2022-12-25T13:15:53.317Z,44.50
2022-12-25T13:18:21.716Z,42.40
2022-12-25T13:20:55.184Z,48.20
2022-12-25T13:23:30.738Z,54.10
2022-12-25T13:25:59.766Z,45.80
2022-12-25T13:28:31.966Z,43.00
2022-12-25T13:31:08.034Z,42.60
2022-12-25T13:33:35.870Z,42.80
2022-12-25T13:36:03.191Z,45.40
2022-12-25T13:38:31.184Z,46.20
2022-12-25T13:41:17.641Z,45.10
2022-12-25T13:43:47.196Z,42.80
2022-12-25T13:46:17.232Z,47.60
2022-12-25T13:48:44.551Z,46.40
2022-12-25T13:51:17.968Z,45.10
2022-12-25T13:53:45.543Z,53.90
2022-12-25T13:56:17.042Z,56.90
2022-12-25T13:58:44.597Z,63.20
2022-12-25T14:01:17.308Z,60.80
2022-12-25T14:03:47.175Z,61.60
2022-12-25T14:06:21.613Z,58.00
2022-12-25T14:08:49.622Z,63.80
2022-12-25T14:11:20.622Z,60.00
2022-12-25T14:13:49.666Z,60.20
2022-12-25T14:16:19.520Z,58.80
2022-12-25T14:18:55.667Z,53.20
2022-12-25T14:21:30.203Z,60.40
2022-12-25T14:23:57.727Z,60.00
2022-12-25T14:26:27.584Z,61.00
2022-12-25T14:28:58.980Z,63.30
2022-12-25T14:31:29.701Z,62.40
2022-12-25T14:33:59.433Z,65.20
2022-12-25T14:36:27.505Z,65.30
2022-12-25T14:39:01.914Z,63.50
2022-12-25T14:41:38.245Z,61.80
2022-12-25T14:44:22.139Z,65.70
2022-12-25T14:46:50.321Z,67.40
2022-12-25T14:49:27.986Z,66.50
2022-12-25T14:51:56.225Z,68.60
2022-12-25T14:54:26.198Z,67.40
2022-12-25T14:56:56.263Z,70.80
2022-12-25T14:59:26.239Z,64.00
2022-12-25T15:01:57.031Z,69.10
2022-12-25T15:04:25.959Z,62.70
2022-12-25T15:06:58.122Z,64.30
2022-12-25T15:09:25.180Z,68.20
2022-12-25T15:11:53.681Z,63.10
2022-12-25T15:14:21.347Z,62.60
2022-12-25T15:16:50.901Z,69.00
2022-12-25T15:19:25.772Z,64.60
2022-12-25T15:21:53.835Z,73.70
2022-12-25T15:24:21.635Z,64.60
2022-12-25T15:26:49.921Z,64.60
2022-12-25T15:29:23.656Z,64.70
2022-12-25T15:32:05.021Z,64.90
2022-12-25T15:34:32.016Z,63.50
2022-12-25T15:36:59.153Z,61.60
2022-12-25T15:39:26.193Z,70.30
2022-12-25T15:42:10.757Z,63.10
2022-12-25T15:44:37.905Z,64.20
2022-12-25T15:47:04.950Z,61.70
2022-12-25T15:49:32.229Z,60.10
2022-12-25T15:51:59.568Z,61.80
2022-12-25T15:54:26.707Z,61.50
2022-12-25T15:56:55.912Z,63.70
2022-12-25T15:59:23.681Z,62.00
2022-12-25T16:01:53.305Z,53.80
2022-12-25T16:04:22.599Z,57.70
2022-12-25T16:06:50.459Z,59.10
2022-12-25T16:09:20.418Z,70.30
2022-12-25T16:11:51.354Z,66.30
2022-12-25T16:14:19.742Z,67.30
2022-12-25T16:16:47.043Z,57.20
2022-12-25T16:19:14.145Z,61.60
2022-12-25T16:21:44.538Z,65.80
2022-12-25T16:24:12.290Z,59.90
2022-12-25T16:26:39.939Z,62.40
2022-12-25T16:29:08.754Z,68.40
2022-12-25T16:31:36.271Z,69.90
2022-12-25T16:34:04.197Z,65.10
2022-12-25T16:36:31.304Z,62.90
2022-12-25T16:38:58.455Z,67.40
2022-12-25T16:41:25.651Z,69.40
2022-12-25T16:43:52.671Z,75.80
2022-12-25T16:46:23.291Z,70.80
2022-12-25T16:48:51.277Z,70.20
2022-12-25T16:51:20.142Z,70.90
2022-12-25T16:53:47.974Z,68.50
2022-12-25T16:56:17.629Z,73.30
2022-12-25T16:58:46.751Z,69.60
2022-12-25T17:01:16.726Z,77.50
2022-12-25T17:03:44.240Z,68.30
2022-12-25T17:06:19.866Z,71.20
2022-12-25T17:08:47.947Z,75.00
2022-12-25T17:11:16.469Z,78.90
2022-12-25T17:13:46.816Z,80.40
2022-12-25T17:16:22.527Z,79.20
2022-12-25T17:18:54.038Z,80.50
2022-12-25T17:21:21.438Z,76.20
2022-12-25T17:23:48.733Z,75.80
2022-12-25T17:26:15.783Z,76.50
2022-12-25T17:28:43.268Z,78.90
2022-12-25T17:31:12.809Z,83.50
2022-12-25T17:33:41.852Z,74.60
2022-12-25T17:36:12.986Z,84.10
2022-12-25T17:38:40.800Z,79.10
2022-12-25T17:41:10.154Z,75.50
2022-12-25T17:43:40.578Z,78.00
2022-12-25T17:46:10.591Z,82.80
2022-12-25T17:48:38.510Z,74.50
2022-12-25T17:51:07.555Z,79.00
2022-12-25T17:53:37.928Z,78.70
2022-12-25T17:56:05.563Z,82.00
2022-12-25T17:58:33.003Z,82.40
2022-12-25T18:01:05.990Z,77.60
2022-12-25T18:03:33.173Z,84.40
2022-12-25T18:06:02.545Z,85.20
2022-12-25T18:08:35.336Z,84.40
2022-12-25T18:11:08.261Z,82.70
2022-12-25T18:13:35.590Z,87.30
2022-12-25T18:16:07.324Z,87.80
2022-12-25T18:18:34.729Z,103.10
2022-12-25T18:21:02.394Z,101.00
2022-12-25T18:23:29.814Z,99.30
2022-12-25T18:25:57.355Z,109.10
2022-12-25T18:28:24.439Z,105.40
2022-12-25T18:30:51.760Z,99.70
2022-12-25T18:33:18.907Z,112.60
2022-12-25T18:35:47.750Z,102.80
2022-12-25T18:38:15.673Z,113.60
2022-12-25T18:40:45.355Z,106.60
2022-12-25T18:43:13.500Z,94.60
2022-12-25T18:45:41.523Z,101.00
2022-12-25T18:48:09.909Z,99.00
2022-12-25T18:50:38.391Z,84.90
2022-12-25T18:53:06.940Z,82.90
2022-12-25T18:55:35.756Z,88.30
2022-12-25T18:58:02.717Z,80.40
2022-12-25T19:00:30.141Z,76.10
2022-12-25T19:03:00.204Z,65.50
2022-12-25T19:05:28.193Z,65.50
2022-12-25T19:07:55.606Z,69.20
2022-12-25T19:10:23.059Z,60.30
2022-12-25T19:12:50.323Z,66.90
2022-12-25T19:15:17.671Z,67.20
2022-12-25T19:17:45.018Z,66.00
2022-12-25T19:20:13.960Z,67.90
2022-12-25T19:22:41.117Z,66.10
2022-12-25T19:25:10.602Z,79.50
2022-12-25T19:27:37.756Z,70.40
2022-12-25T19:30:06.065Z,68.50
2022-12-25T19:32:33.581Z,75.00
2022-12-25T19:35:04.563Z,74.00
2022-12-25T19:37:32.264Z,81.20
2022-12-25T19:39:59.659Z,85.10
2022-12-25T19:42:26.882Z,69.90
2022-12-25T19:44:56.089Z,82.40
2022-12-25T19:47:24.357Z,71.40
2022-12-25T19:49:53.369Z,75.90
2022-12-25T19:52:21.713Z,70.80
2022-12-25T19:54:51.376Z,64.60
2022-12-25T19:57:18.398Z,63.60
2022-12-25T19:59:54.695Z,62.10
2022-12-25T20:02:22.238Z,60.10
2022-12-25T20:04:49.556Z,65.70
2022-12-25T20:07:16.696Z,66.10
2022-12-25T20:09:43.896Z,57.60
2022-12-25T20:12:14.722Z,61.80
2022-12-25T20:14:41.951Z,53.50
2022-12-25T20:17:15.311Z,62.60
2022-12-25T20:19:43.512Z,59.00
2022-12-25T20:22:10.773Z,61.10
2022-12-25T20:24:37.916Z,63.10
2022-12-25T20:27:05.534Z,60.10
2022-12-25T20:29:32.556Z,56.90
2022-12-25T20:31:59.713Z,53.80
2022-12-25T20:34:27.032Z,53.70
2022-12-25T20:36:54.182Z,50.20
2022-12-25T20:39:21.238Z,53.80
2022-12-25T20:41:48.677Z,51.90
2022-12-25T20:44:15.931Z,58.90
2022-12-25T20:46:43.638Z,58.70
2022-12-25T20:49:10.954Z,57.60
2022-12-25T20:51:38.322Z,56.70
2022-12-25T20:54:09.581Z,55.30
2022-12-25T20:56:37.518Z,49.90
2022-12-25T20:59:04.955Z,58.60
2022-12-25T21:01:33.428Z,52.90
2022-12-25T21:04:01.234Z,51.10
2022-12-25T21:06:28.386Z,54.60
2022-12-25T21:08:55.539Z,61.10
2022-12-25T21:11:23.626Z,56.70
2022-12-25T21:13:51.313Z,53.40
2022-12-25T21:16:22.761Z,51.00
2022-12-25T21:18:50.867Z,47.40
2022-12-25T21:21:18.193Z,45.30
2022-12-25T21:23:45.665Z,48.50
2022-12-25T21:26:16.196Z,50.00
2022-12-25T21:28:43.426Z,49.40
2022-12-25T21:31:11.374Z,49.90
2022-12-25T21:33:54.447Z,48.70
2022-12-25T21:36:23.782Z,56.80
2022-12-25T21:38:55.338Z,55.80
2022-12-25T21:41:22.783Z,49.80
2022-12-25T21:43:50.242Z,52.90
2022-12-25T21:46:18.359Z,45.60
2022-12-25T21:48:46.179Z,46.00
2022-12-25T21:51:35.550Z,48.10
2022-12-25T21:54:04.031Z,53.90
2022-12-25T21:56:36.029Z,45.90
2022-12-25T21:59:07.653Z,48.90
2022-12-25T22:01:35.558Z,52.40
2022-12-25T22:04:07.075Z,50.60
2022-12-25T22:06:52.171Z,51.30
2022-12-25T22:09:19.509Z,48.50
2022-12-25T22:12:04.514Z,46.90
2022-12-25T22:14:51.839Z,49.40
2022-12-25T22:17:39.958Z,54.20
2022-12-25T22:20:09.588Z,48.80
2022-12-25T22:22:36.929Z,49.50
2022-12-25T22:25:06.198Z,49.20
2022-12-25T22:27:36.009Z,49.20
2022-12-25T22:30:03.485Z,47.20
2022-12-25T22:32:30.843Z,48.30
2022-12-25T22:34:58.432Z,50.50
2022-12-25T22:37:25.532Z,53.00
2022-12-25T22:39:53.333Z,49.50
2022-12-25T22:42:20.687Z,48.40
2022-12-25T22:44:48.265Z,48.70
2022-12-25T22:47:15.580Z,51.40
2022-12-25T22:49:42.670Z,48.10
2022-12-25T22:52:10.314Z,47.50
2022-12-25T22:54:38.185Z,47.80
2022-12-25T22:57:05.697Z,42.50
2022-12-25T22:59:33.971Z,40.50
2022-12-25T23:02:01.632Z,40.40
2022-12-25T23:04:29.498Z,44.80
2022-12-25T23:06:57.061Z,41.60
2022-12-25T23:09:27.906Z,37.10
2022-12-25T23:11:57.611Z,36.70
2022-12-25T23:14:40.347Z,39.80
2022-12-25T23:17:30.016Z,42.10
2022-12-25T23:20:17.042Z,40.10
2022-12-25T23:23:02.710Z,41.00
2022-12-25T23:25:47.284Z,38.80
2022-12-25T23:28:14.426Z,39.80
2022-12-25T23:30:42.079Z,42.20
2022-12-25T23:33:09.322Z,40.50
2022-12-25T23:35:39.038Z,40.70
2022-12-25T23:38:06.187Z,35.80
2022-12-25T23:40:33.175Z,37.60
2022-12-25T23:43:00.128Z,37.80
2022-12-25T23:45:27.341Z,38.20
2022-12-25T23:47:55.817Z,39.50
2022-12-25T23:50:24.084Z,42.70
2022-12-25T23:52:51.137Z,39.20
2022-12-25T23:55:18.298Z,41.00
2022-12-25T23:57:45.435Z,40.20
